02:04 Bike Tschirgantrunde "klassisch"
Ort Moetz Datum 01.05.2010 15:02:51
Kategorie MTB
Distanz 48,19 Kilometer Steigung 486,3 Meter Gefälle -554,4 Meter
Gesamt Zeit 02:05:56 Aktiv 02:03:54 Pause 00:02:02
Durchs. Tempo 23,3 km/h Tempo max. 39,7 km/h Tempo min. 7,5 km/h
Kalorien 0 Durchs. HF 139 BPM HF max. 167 BPM
Wetter 21 °C ChanceRain
Ausrüstung Schwalbe - Racing Ralph hinten
Schwalbe - Racing Ralph vorne
Specialized - BG S-Works MTB
Specialized - Stumpjumper Comp
SwissStop - Disc17 Avid Juicy
Notiz Tschirgantrunde "klassisch" ... starker Gegenwind im Gurgltal, tw. Regen, Trittfrequenz stimmt nicht ... garmin connect
Splits
Distanz (km) Gesamt Zeit Split Zeit Split Tempo Split Tempo Höhenprofil (m)
1,00 00:04:11 00:04:11 00:04:11 14,3 -4,33
2,00 00:06:09 00:01:58 00:01:58 30,5 4,33
3,00 00:08:12 00:02:03 00:02:03 29,3 10,09
4,00 00:10:06 00:01:54 00:01:54 31,6 -1,92
5,00 00:11:59 00:01:53 00:01:53 31,9 2,88
6,00 00:13:50 00:01:51 00:01:51 32,4 3,85
7,00 00:15:47 00:01:57 00:01:57 30,8 7,21
8,00 00:18:54 00:03:07 00:03:07 19,3 43,26
9,00 00:21:00 00:02:06 00:02:06 28,6 5,29
10,00 00:22:44 00:01:44 00:01:44 34,6 -23,07
11,00 00:24:26 00:01:42 00:01:42 35,3 -12,98
12,00 00:26:49 00:02:23 00:02:23 25,2 23,07
13,00 00:29:00 00:02:11 00:02:11 27,5 -8,65
14,00 00:31:54 00:02:54 00:02:54 20,7 25,47
15,00 00:33:53 00:01:59 00:01:59 30,3 -14,42
16,00 00:36:19 00:02:26 00:02:26 24,7 5,77
17,00 00:39:05 00:02:46 00:02:46 21,7 -3,36
18,00 00:41:09 00:02:04 00:02:04 29,0 6,73
19,00 00:43:48 00:02:39 00:02:39 22,6 0,00
20,00 00:45:57 00:02:09 00:02:09 27,9 3,85
21,00 00:48:10 00:02:13 00:02:13 27,1 0,00
22,00 00:50:42 00:02:32 00:02:32 23,7 12,02
23,00 00:53:31 00:02:49 00:02:49 21,3 23,07
24,00 00:55:57 00:02:26 00:02:26 24,7 2,88
25,00 00:58:50 00:02:53 00:02:53 20,8 12,02
26,00 01:01:47 00:02:57 00:02:57 20,3 14,90
27,00 01:04:40 00:02:53 00:02:53 20,8 20,19
28,00 01:07:19 00:02:39 00:02:39 22,6 4,81
29,00 01:10:15 00:02:56 00:02:56 20,5 16,34
30,00 01:12:28 00:02:13 00:02:13 27,1 -0,48
31,00 01:14:57 00:02:29 00:02:29 24,2 15,38
32,00 01:17:08 00:02:11 00:02:11 27,5 -24,03
33,00 01:19:39 00:02:31 00:02:31 23,8 -0,96
34,00 01:21:58 00:02:19 00:02:19 25,9 3,36
35,00 01:25:12 00:03:14 00:03:14 18,6 28,36
36,00 01:28:10 00:02:58 00:02:58 20,2 27,40
37,00 01:31:48 00:03:38 00:03:38 16,5 48,07
38,00 01:36:34 00:04:46 00:04:46 12,6 67,29
39,00 01:42:42 00:06:08 00:06:08 9,8 91,81
40,00 01:47:16 00:04:34 00:04:34 13,1 44,22
41,00 01:50:24 00:03:08 00:03:08 19,1 -12,02
42,00 01:52:20 00:01:56 00:01:56 31,0 -35,09
43,00 01:54:37 00:02:17 00:02:17 26,3 -40,38
44,00 01:56:19 00:01:42 00:01:42 35,3 -30,76
45,00 01:58:28 00:02:09 00:02:09 27,9 -24,99
46,00 02:01:18 00:02:50 00:02:50 21,2 -90,36
47,00 02:03:20 00:02:02 00:02:02 29,5 -91,81
48,00 02:05:23 00:02:03 00:02:03 29,3 -115,84